Webb, Canada
Current Conditions -  °F | °C
As of 3:00 AM on Friday 31 Oct 2014 (Local Time) from CYYN Reporting Station
Overcast Overcast  
Wind Chill: 20°   Ceiling: 15000
Heat Index: 34°   Visibility: 8mi
Dew Point: 30°   Wind: 30mph
Humidity: 87%   Direction: 160°SSE
Pressure: 30.06"   Gusts: 41mph
Location:  50.18°N, 108.2°W
Report Text: CYYN 310900Z AUTO 16026G36KT 8SM FEW130 OVC150 01/M01 A3006 RMK SLP211
Loading
Personal Weather Stations






























Interactive Weather Map
Tropical Storm Tracking
New forecast layout! Learn more

10-Day Weather Forecast

Advertisements
Track Severe Weather on mobile